createdAt,value
2018-08-20T00:00:28.299Z,53.00
2018-08-20T00:02:55.127Z,53.00
2018-08-20T00:05:22.019Z,53.00
2018-08-20T00:07:48.842Z,53.00
2018-08-20T00:10:15.670Z,53.00
2018-08-20T00:12:42.489Z,53.00
2018-08-20T00:15:09.390Z,53.00
2018-08-20T00:17:36.210Z,53.00
2018-08-20T00:20:03.031Z,53.10
2018-08-20T00:22:29.886Z,53.10
2018-08-20T00:24:56.778Z,53.00
2018-08-20T00:27:23.604Z,53.00
2018-08-20T00:29:50.429Z,53.00
2018-08-20T00:32:17.253Z,53.10
2018-08-20T00:34:44.126Z,53.00
2018-08-20T00:37:12.078Z,53.00
2018-08-20T00:39:38.985Z,53.00
2018-08-20T00:42:05.828Z,53.10
2018-08-20T00:44:32.726Z,53.10
2018-08-20T00:46:59.558Z,53.00
2018-08-20T00:49:26.397Z,52.90
2018-08-20T00:51:53.234Z,53.00
2018-08-20T00:54:20.100Z,53.10
2018-08-20T00:56:46.936Z,53.00
2018-08-20T00:59:13.772Z,53.00
2018-08-20T01:01:40.593Z,53.00
2018-08-20T01:04:07.472Z,53.00
2018-08-20T01:06:34.295Z,53.00
2018-08-20T01:09:01.145Z,53.10
2018-08-20T01:11:27.974Z,53.00
2018-08-20T01:13:54.843Z,53.00
2018-08-20T01:16:21.662Z,53.00
2018-08-20T01:18:48.512Z,52.90
2018-08-20T01:21:15.329Z,53.00
2018-08-20T01:23:42.216Z,53.00
2018-08-20T01:26:09.045Z,53.00
2018-08-20T01:28:35.876Z,53.00
2018-08-20T01:31:02.710Z,52.90
2018-08-20T01:33:29.543Z,52.90
2018-08-20T01:35:56.355Z,53.00
2018-08-20T01:38:24.093Z,53.00
2018-08-20T01:40:50.937Z,53.00
2018-08-20T01:43:17.758Z,52.90
2018-08-20T01:45:44.607Z,52.90
2018-08-20T01:48:11.442Z,52.90
2018-08-20T01:50:38.285Z,52.90
2018-08-20T01:53:05.106Z,52.90
2018-08-20T01:55:32.194Z,52.80
2018-08-20T01:57:59.015Z,52.80
2018-08-20T02:00:25.845Z,52.90
2018-08-20T02:02:52.686Z,52.80
2018-08-20T02:05:19.558Z,52.90
2018-08-20T02:07:46.390Z,52.90
2018-08-20T02:10:13.205Z,53.00
2018-08-20T02:12:40.027Z,53.00
2018-08-20T02:15:06.945Z,52.90
2018-08-20T02:17:33.778Z,52.90
2018-08-20T02:20:00.629Z,52.90
2018-08-20T02:22:27.454Z,52.90
2018-08-20T02:24:54.317Z,52.90
2018-08-20T02:27:21.141Z,52.90
2018-08-20T02:29:47.979Z,52.90
2018-08-20T02:32:14.809Z,52.90
2018-08-20T02:34:41.690Z,52.80
2018-08-20T02:37:08.506Z,52.90
2018-08-20T02:39:35.349Z,52.80
2018-08-20T02:42:02.185Z,52.90
2018-08-20T02:44:29.052Z,52.90
2018-08-20T02:46:55.906Z,52.90
2018-08-20T02:49:22.742Z,52.90
2018-08-20T02:51:49.577Z,52.90
2018-08-20T02:54:16.434Z,52.90
2018-08-20T02:56:43.253Z,52.90
2018-08-20T02:59:10.089Z,52.90
2018-08-20T03:01:36.915Z,52.90
2018-08-20T03:04:03.806Z,52.90
2018-08-20T03:06:30.642Z,52.70
2018-08-20T03:08:57.476Z,52.70
2018-08-20T03:11:24.325Z,52.70
2018-08-20T03:13:51.207Z,52.70
2018-08-20T03:16:18.059Z,52.80
2018-08-20T03:18:44.851Z,52.90
2018-08-20T03:21:11.681Z,52.80
2018-08-20T03:23:38.540Z,52.90
2018-08-20T03:26:05.373Z,52.90
2018-08-20T03:28:32.206Z,52.80
2018-08-20T03:30:59.032Z,52.70
2018-08-20T03:33:25.862Z,52.70
2018-08-20T03:35:52.693Z,52.70
2018-08-20T03:38:19.517Z,52.70
2018-08-20T03:40:46.357Z,52.30
2018-08-20T03:43:13.191Z,52.50
2018-08-20T03:45:40.026Z,52.60
2018-08-20T03:48:06.911Z,52.60
2018-08-20T03:50:33.764Z,52.30
2018-08-20T03:53:00.595Z,52.50
2018-08-20T03:55:27.493Z,52.50
2018-08-20T03:57:54.321Z,52.60
2018-08-20T04:00:21.152Z,52.60
2018-08-20T04:02:47.979Z,52.60
2018-08-20T04:05:15.906Z,52.60
2018-08-20T04:07:42.747Z,52.70
2018-08-20T04:10:09.576Z,52.60
2018-08-20T04:12:36.422Z,52.60
2018-08-20T04:15:03.271Z,52.60
2018-08-20T04:17:30.108Z,52.60
2018-08-20T04:19:56.934Z,52.60
2018-08-20T04:22:23.762Z,52.60
2018-08-20T04:24:50.643Z,52.70
2018-08-20T04:27:17.468Z,52.80
2018-08-20T04:29:44.298Z,52.90
2018-08-20T04:32:11.971Z,52.60
2018-08-20T04:34:38.835Z,52.50
2018-08-20T04:37:05.645Z,52.60
2018-08-20T04:39:32.477Z,52.70
2018-08-20T04:41:59.343Z,52.70
2018-08-20T04:44:26.149Z,52.70
2018-08-20T04:46:52.988Z,52.80
2018-08-20T04:49:19.821Z,52.80
2018-08-20T04:51:46.651Z,52.70
2018-08-20T04:54:13.578Z,52.70
2018-08-20T04:56:40.416Z,52.70
2018-08-20T04:59:07.259Z,53.30
2018-08-20T05:01:34.092Z,52.80
2018-08-20T05:04:01.025Z,52.70
2018-08-20T05:06:27.793Z,52.70
2018-08-20T05:08:54.632Z,52.80
2018-08-20T05:11:21.471Z,52.70
2018-08-20T05:13:48.326Z,52.70
2018-08-20T05:16:15.153Z,52.70
2018-08-20T05:18:42.000Z,52.70
2018-08-20T05:21:08.819Z,52.70
2018-08-20T05:23:35.700Z,52.70
2018-08-20T05:26:02.528Z,52.60
2018-08-20T05:28:29.405Z,52.60
2018-08-20T05:30:56.226Z,52.60
2018-08-20T05:33:23.051Z,52.60
2018-08-20T05:35:49.897Z,52.60
2018-08-20T05:38:16.734Z,52.60
2018-08-20T05:40:43.563Z,52.60
2018-08-20T05:43:10.430Z,53.20
2018-08-20T05:45:37.255Z,52.60
2018-08-20T05:48:04.077Z,52.60
2018-08-20T05:50:30.943Z,52.60
2018-08-20T05:52:57.811Z,52.50
2018-08-20T05:55:24.650Z,52.50
2018-08-20T05:57:51.492Z,52.50
2018-08-20T06:00:18.824Z,52.40
2018-08-20T06:02:45.646Z,52.40
2018-08-20T06:05:13.061Z,52.40
2018-08-20T06:07:40.058Z,52.30
2018-08-20T06:10:06.892Z,52.30
2018-08-20T06:12:33.741Z,52.20
2018-08-20T06:15:00.628Z,52.30
2018-08-20T06:17:27.458Z,52.30
2018-08-20T06:19:54.299Z,52.20
2018-08-20T06:22:21.132Z,52.20
2018-08-20T06:24:47.992Z,52.20
2018-08-20T06:27:14.820Z,52.20
2018-08-20T06:29:41.669Z,52.20
2018-08-20T06:32:08.849Z,52.20
2018-08-20T06:34:35.770Z,52.10
2018-08-20T06:37:02.608Z,52.10
2018-08-20T06:39:29.434Z,52.00
2018-08-20T06:41:56.297Z,52.00
2018-08-20T06:44:23.100Z,52.10
2018-08-20T06:46:49.924Z,52.20
2018-08-20T06:49:16.756Z,52.10
2018-08-20T06:51:43.714Z,52.10
2018-08-20T06:54:10.520Z,52.20
2018-08-20T06:56:37.343Z,52.10
2018-08-20T06:59:04.186Z,52.10
2018-08-20T07:01:31.014Z,52.10
2018-08-20T07:03:57.885Z,52.10
2018-08-20T07:06:24.741Z,52.10
2018-08-20T07:08:51.526Z,52.10
2018-08-20T07:11:18.350Z,52.00
2018-08-20T07:13:45.257Z,52.00
2018-08-20T07:16:12.091Z,52.00
2018-08-20T07:18:38.930Z,52.10
2018-08-20T07:21:05.775Z,52.00
2018-08-20T07:23:32.761Z,52.00
2018-08-20T07:25:59.449Z,52.00
2018-08-20T07:28:26.274Z,52.00
2018-08-20T07:30:53.130Z,52.00
2018-08-20T07:33:20.000Z,51.90
2018-08-20T07:35:46.836Z,52.00
2018-08-20T07:38:13.674Z,52.00
2018-08-20T07:40:40.507Z,51.90
2018-08-20T07:43:07.341Z,52.00
2018-08-20T07:45:34.186Z,51.90
2018-08-20T07:48:01.010Z,51.90
2018-08-20T07:50:28.520Z,51.90
2018-08-20T07:52:55.322Z,51.90
2018-08-20T07:55:22.208Z,51.90
2018-08-20T07:57:49.049Z,51.90
2018-08-20T08:00:15.897Z,51.90
2018-08-20T08:02:42.755Z,51.90
2018-08-20T08:05:10.453Z,51.80
2018-08-20T08:07:37.443Z,51.80
2018-08-20T08:10:04.256Z,51.80
2018-08-20T08:12:31.096Z,51.70
2018-08-20T08:14:57.991Z,51.80
2018-08-20T08:17:24.815Z,51.70
2018-08-20T08:19:51.711Z,51.70
2018-08-20T08:22:18.468Z,51.70
2018-08-20T08:24:45.296Z,51.80
2018-08-20T08:27:12.183Z,51.70
2018-08-20T08:29:39.015Z,51.60
2018-08-20T08:32:05.849Z,51.60
2018-08-20T08:34:32.734Z,51.50
2018-08-20T08:36:59.584Z,52.20
2018-08-20T08:39:26.402Z,51.70
2018-08-20T08:41:53.230Z,51.60
2018-08-20T08:44:20.091Z,51.70
2018-08-20T08:46:46.919Z,51.70
2018-08-20T08:49:13.745Z,51.70
2018-08-20T08:51:40.572Z,51.70
2018-08-20T08:54:07.459Z,52.40
2018-08-20T08:56:34.282Z,51.70
2018-08-20T08:59:01.119Z,51.70
2018-08-20T09:01:27.956Z,51.70
2018-08-20T09:03:54.799Z,51.70
2018-08-20T09:06:21.618Z,51.80
2018-08-20T09:08:48.440Z,51.70
2018-08-20T09:11:15.350Z,51.70
2018-08-20T09:13:42.238Z,51.80
2018-08-20T09:16:09.008Z,51.80
2018-08-20T09:18:35.830Z,51.80
2018-08-20T09:21:02.740Z,51.80
2018-08-20T09:23:29.570Z,51.80
2018-08-20T09:25:56.415Z,51.70
2018-08-20T09:28:23.244Z,51.70
2018-08-20T09:30:50.090Z,51.80
2018-08-20T09:33:16.923Z,51.70
2018-08-20T09:35:43.758Z,51.80
2018-08-20T09:38:10.588Z,51.80
2018-08-20T09:40:37.398Z,51.80
2018-08-20T09:43:04.234Z,51.70
2018-08-20T09:45:31.155Z,51.70
2018-08-20T09:47:57.968Z,51.70
2018-08-20T09:50:24.805Z,51.70
2018-08-20T09:52:51.633Z,51.70
2018-08-20T09:55:18.525Z,51.70
2018-08-20T09:57:45.356Z,51.70
2018-08-20T10:00:12.199Z,51.70
2018-08-20T10:02:39.032Z,51.70
2018-08-20T10:05:05.898Z,51.70
2018-08-20T10:07:32.806Z,51.70
2018-08-20T10:09:59.548Z,51.70
2018-08-20T10:12:26.374Z,51.70
2018-08-20T10:14:53.211Z,51.70
2018-08-20T10:17:20.638Z,51.70
2018-08-20T10:19:47.543Z,51.70
2018-08-20T10:22:14.367Z,51.70
2018-08-20T10:24:41.339Z,51.70
2018-08-20T10:27:08.114Z,51.70
2018-08-20T10:29:34.935Z,51.70
2018-08-20T10:32:01.786Z,51.70
2018-08-20T10:34:28.631Z,51.70
2018-08-20T10:36:55.467Z,51.70
2018-08-20T10:39:22.323Z,51.70
2018-08-20T10:41:49.148Z,51.70
2018-08-20T10:44:15.993Z,51.60
2018-08-20T10:46:42.833Z,51.70
2018-08-20T10:49:09.657Z,51.60
2018-08-20T10:51:36.478Z,51.60
2018-08-20T10:54:03.382Z,51.60
2018-08-20T10:56:30.224Z,51.60
2018-08-20T10:58:57.038Z,51.60
2018-08-20T11:01:23.878Z,51.60
2018-08-20T11:03:50.744Z,51.60
2018-08-20T11:06:17.574Z,51.60
2018-08-20T11:08:44.405Z,52.30
2018-08-20T11:11:11.250Z,51.60
2018-08-20T11:13:38.110Z,51.60
2018-08-20T11:16:04.946Z,51.50
2018-08-20T11:18:31.869Z,51.50
2018-08-20T11:20:58.616Z,51.60
2018-08-20T11:23:25.447Z,51.50
2018-08-20T11:25:52.292Z,51.50
2018-08-20T11:28:19.116Z,51.50
2018-08-20T11:30:45.938Z,51.50
2018-08-20T11:33:12.758Z,51.60
2018-08-20T11:35:39.589Z,51.50
2018-08-20T11:38:06.415Z,51.00
2018-08-20T11:40:33.265Z,51.60
2018-08-20T11:43:00.096Z,51.60
2018-08-20T11:45:27.087Z,51.50
2018-08-20T11:47:53.905Z,51.60
2018-08-20T11:50:20.752Z,51.50
2018-08-20T11:52:47.592Z,51.50
2018-08-20T11:55:14.454Z,51.50
2018-08-20T11:57:41.288Z,51.50
2018-08-20T12:00:08.151Z,51.60
2018-08-20T12:02:34.970Z,51.50
2018-08-20T12:05:01.822Z,51.60
2018-08-20T12:07:28.717Z,51.60
2018-08-20T12:09:55.473Z,51.60
2018-08-20T12:12:22.303Z,51.50
2018-08-20T12:14:49.190Z,51.50
2018-08-20T12:17:17.120Z,51.50
2018-08-20T12:19:43.855Z,51.40
2018-08-20T12:22:10.714Z,51.50
2018-08-20T12:24:37.587Z,51.40
2018-08-20T12:27:04.427Z,51.40
2018-08-20T12:29:31.280Z,51.50
2018-08-20T12:31:58.147Z,51.40
2018-08-20T12:34:25.217Z,51.40
2018-08-20T12:36:52.015Z,51.30
2018-08-20T12:39:18.839Z,51.50
2018-08-20T12:41:45.673Z,51.60
2018-08-20T12:44:12.543Z,51.60
2018-08-20T12:46:39.380Z,51.40
2018-08-20T12:49:06.196Z,51.40
2018-08-20T12:51:33.057Z,51.40
2018-08-20T12:53:59.911Z,51.50
2018-08-20T12:56:26.760Z,51.50
2018-08-20T12:58:53.615Z,51.50
2018-08-20T13:01:21.025Z,51.40
2018-08-20T13:03:48.720Z,51.40
2018-08-20T13:06:15.567Z,51.40
2018-08-20T13:08:42.403Z,51.60
2018-08-20T13:11:09.239Z,51.50
2018-08-20T13:13:36.058Z,51.50
2018-08-20T13:16:03.021Z,51.50
2018-08-20T13:18:29.709Z,51.50
2018-08-20T13:20:56.535Z,51.50
2018-08-20T13:23:23.371Z,51.60
2018-08-20T13:25:50.186Z,51.60
2018-08-20T13:28:17.180Z,51.70
2018-08-20T13:30:44.073Z,51.60
2018-08-20T13:33:10.812Z,51.50
2018-08-20T13:35:38.523Z,51.50
2018-08-20T13:38:05.325Z,51.50
2018-08-20T13:40:32.151Z,51.50
2018-08-20T13:42:58.987Z,51.50
2018-08-20T13:45:25.858Z,51.50
2018-08-20T13:47:52.686Z,51.60
2018-08-20T13:50:19.782Z,51.60
2018-08-20T13:52:46.571Z,51.60
2018-08-20T13:55:13.434Z,51.30
2018-08-20T13:57:40.258Z,51.30
2018-08-20T14:00:07.086Z,51.50
2018-08-20T14:02:33.942Z,51.40
2018-08-20T14:05:01.839Z,51.40
2018-08-20T14:07:28.664Z,51.40
2018-08-20T14:09:55.490Z,51.50
2018-08-20T14:12:22.323Z,51.50
2018-08-20T14:14:49.901Z,51.40
2018-08-20T14:17:17.324Z,51.50
2018-08-20T14:19:44.312Z,51.60
2018-08-20T14:22:11.136Z,51.50
2018-08-20T14:24:37.964Z,51.60
2018-08-20T14:27:04.842Z,51.50
2018-08-20T14:29:31.707Z,51.50
2018-08-20T14:31:58.535Z,51.60
2018-08-20T14:34:25.371Z,51.60
2018-08-20T14:36:52.195Z,51.60
2018-08-20T14:39:19.003Z,51.60
2018-08-20T14:41:45.828Z,51.60
2018-08-20T14:44:12.672Z,51.30
2018-08-20T14:46:39.503Z,51.30
2018-08-20T14:49:06.323Z,51.40
2018-08-20T14:51:33.166Z,51.50
2018-08-20T14:54:00.124Z,51.50
2018-08-20T14:56:26.946Z,51.60
2018-08-20T14:58:53.775Z,51.60
2018-08-20T15:01:20.650Z,51.60
2018-08-20T15:03:47.501Z,51.50
2018-08-20T15:06:14.336Z,51.50
2018-08-20T15:08:41.164Z,51.60
2018-08-20T15:11:07.993Z,51.50
2018-08-20T15:13:34.888Z,51.30
2018-08-20T15:16:01.779Z,51.40
2018-08-20T15:18:28.581Z,51.40
2018-08-20T15:20:55.413Z,51.40
2018-08-20T15:23:22.239Z,51.20
2018-08-20T15:25:49.086Z,51.30
2018-08-20T15:28:15.917Z,51.40
2018-08-20T15:30:42.827Z,51.40
2018-08-20T15:33:09.849Z,51.40
2018-08-20T15:35:36.662Z,51.40
2018-08-20T15:38:03.502Z,51.50
2018-08-20T15:40:30.337Z,51.60
2018-08-20T15:42:57.154Z,51.70
2018-08-20T15:45:24.432Z,51.60
2018-08-20T15:47:51.239Z,51.70
2018-08-20T15:50:18.077Z,51.70
2018-08-20T15:52:44.931Z,52.30
2018-08-20T15:55:11.810Z,51.60
2018-08-20T15:57:38.646Z,51.60
2018-08-20T16:00:05.490Z,51.60
2018-08-20T16:02:32.296Z,51.70
2018-08-20T16:04:59.191Z,51.70
2018-08-20T16:07:26.021Z,51.80
2018-08-20T16:09:52.830Z,51.80
2018-08-20T16:12:19.779Z,51.90
2018-08-20T16:14:46.749Z,51.90
2018-08-20T16:17:13.575Z,51.90
2018-08-20T16:19:40.402Z,51.70
2018-08-20T16:22:07.240Z,51.70
2018-08-20T16:24:34.132Z,51.70
2018-08-20T16:27:00.958Z,51.80
2018-08-20T16:29:27.783Z,52.00
2018-08-20T16:31:54.607Z,51.90
2018-08-20T16:34:21.505Z,51.80
2018-08-20T16:36:48.364Z,51.80
2018-08-20T16:39:15.195Z,51.90
2018-08-20T16:41:42.021Z,52.00
2018-08-20T16:44:08.880Z,52.00
2018-08-20T16:46:35.707Z,51.90
2018-08-20T16:49:02.542Z,51.80
2018-08-20T16:51:29.378Z,51.90
2018-08-20T16:53:56.235Z,52.00
2018-08-20T16:56:23.069Z,51.90
2018-08-20T16:58:49.905Z,51.20
2018-08-20T17:01:16.972Z,51.00
2018-08-20T17:03:43.856Z,50.80
2018-08-20T17:06:10.728Z,50.90
2018-08-20T17:08:37.527Z,51.00
2018-08-20T17:11:04.386Z,51.10
2018-08-20T17:13:31.386Z,51.00
2018-08-20T17:15:58.239Z,51.10
2018-08-20T17:18:25.047Z,51.10
2018-08-20T17:20:51.929Z,51.20
2018-08-20T17:23:18.735Z,51.20
2018-08-20T17:25:45.550Z,51.50
2018-08-20T17:28:12.387Z,51.60
2018-08-20T17:30:39.302Z,52.30
2018-08-20T17:33:06.126Z,51.70
2018-08-20T17:35:32.972Z,51.00
2018-08-20T17:37:59.803Z,51.00
2018-08-20T17:40:26.639Z,51.10
2018-08-20T17:42:53.488Z,51.20
2018-08-20T17:45:20.361Z,51.40
2018-08-20T17:47:47.184Z,51.60
2018-08-20T17:50:14.012Z,51.50
2018-08-20T17:52:40.835Z,51.50
2018-08-20T17:55:07.732Z,51.60
2018-08-20T17:57:34.556Z,51.70
2018-08-20T18:00:01.390Z,51.70
2018-08-20T18:02:29.994Z,51.80
2018-08-20T18:04:57.614Z,51.80
2018-08-20T18:07:24.416Z,51.90
2018-08-20T18:09:51.269Z,52.00
2018-08-20T18:12:18.099Z,51.90
2018-08-20T18:14:45.154Z,51.90
2018-08-20T18:17:12.037Z,52.00
2018-08-20T18:19:38.886Z,51.90
2018-08-20T18:22:05.709Z,52.00
2018-08-20T18:24:33.746Z,52.00
2018-08-20T18:27:00.580Z,52.10
2018-08-20T18:29:27.435Z,52.10
2018-08-20T18:31:54.315Z,51.90
2018-08-20T18:34:21.312Z,52.00
2018-08-20T18:36:48.140Z,52.00
2018-08-20T18:39:14.973Z,52.00
2018-08-20T18:41:42.087Z,52.10
2018-08-20T18:44:09.096Z,52.10
2018-08-20T18:46:35.916Z,52.10
2018-08-20T18:49:02.745Z,52.10
2018-08-20T18:51:29.585Z,52.10
2018-08-20T18:53:56.471Z,52.00
2018-08-20T18:56:23.316Z,52.00
2018-08-20T18:58:50.146Z,52.10
2018-08-20T19:01:17.002Z,52.10
2018-08-20T19:03:43.836Z,52.20
2018-08-20T19:06:10.676Z,52.10
2018-08-20T19:08:37.493Z,52.20
2018-08-20T19:11:04.326Z,52.90
2018-08-20T19:13:31.278Z,52.20
2018-08-20T19:15:58.102Z,52.20
2018-08-20T19:18:24.939Z,52.10
2018-08-20T19:20:51.771Z,52.10
2018-08-20T19:23:18.601Z,52.20
2018-08-20T19:25:45.436Z,52.30
2018-08-20T19:28:12.262Z,52.30
2018-08-20T19:30:39.157Z,52.30
2018-08-20T19:33:06.035Z,53.10
2018-08-20T19:35:32.859Z,52.50
2018-08-20T19:37:59.701Z,52.50
2018-08-20T19:40:26.841Z,52.50
2018-08-20T19:42:53.684Z,52.60
2018-08-20T19:45:20.687Z,52.60
2018-08-20T19:47:47.719Z,52.60
2018-08-20T19:50:14.697Z,52.60
2018-08-20T19:52:41.586Z,52.60
2018-08-20T19:55:08.668Z,52.60
2018-08-20T19:57:35.483Z,52.60
2018-08-20T20:00:02.341Z,52.60
2018-08-20T20:02:29.498Z,52.70
2018-08-20T20:04:56.391Z,52.60
2018-08-20T20:07:23.217Z,52.60
2018-08-20T20:09:50.056Z,52.50
2018-08-20T20:12:16.933Z,52.60
2018-08-20T20:14:43.927Z,52.60
2018-08-20T20:17:10.875Z,52.60
2018-08-20T20:19:38.274Z,52.60
2018-08-20T20:22:05.120Z,52.60
2018-08-20T20:24:32.188Z,52.60
2018-08-20T20:26:59.004Z,52.70
2018-08-20T20:29:25.846Z,52.60
2018-08-20T20:31:52.677Z,52.70
2018-08-20T20:34:19.704Z,53.20
2018-08-20T20:36:46.558Z,52.60
2018-08-20T20:39:13.394Z,52.60
2018-08-20T20:41:40.220Z,52.50
2018-08-20T20:44:07.058Z,52.60
2018-08-20T20:46:33.894Z,52.60
2018-08-20T20:49:00.744Z,52.70
2018-08-20T20:51:27.620Z,52.70
2018-08-20T20:53:54.435Z,52.60
2018-08-20T20:56:21.280Z,52.60
2018-08-20T20:58:48.465Z,52.60
2018-08-20T21:01:15.761Z,52.70
2018-08-20T21:03:43.048Z,52.70
2018-08-20T21:06:10.581Z,52.70
2018-08-20T21:08:37.531Z,52.70
2018-08-20T21:11:04.410Z,52.70
2018-08-20T21:13:31.221Z,52.60
2018-08-20T21:15:59.737Z,52.60
2018-08-20T21:18:26.565Z,52.60
2018-08-20T21:20:53.398Z,52.70
2018-08-20T21:23:20.230Z,52.60
2018-08-20T21:25:47.780Z,52.60
2018-08-20T21:28:14.586Z,52.60
2018-08-20T21:30:41.476Z,52.60
2018-08-20T21:33:08.261Z,52.60
2018-08-20T21:35:35.087Z,52.60
2018-08-20T21:38:01.910Z,52.50
2018-08-20T21:40:28.742Z,52.50
2018-08-20T21:42:55.786Z,52.50
2018-08-20T21:45:22.616Z,52.50
2018-08-20T21:47:49.442Z,52.50
2018-08-20T21:50:16.275Z,52.50
2018-08-20T21:52:43.272Z,52.50
2018-08-20T21:55:10.212Z,52.50
2018-08-20T21:57:38.047Z,52.50
2018-08-20T22:00:04.892Z,52.50
2018-08-20T22:02:31.734Z,52.50
2018-08-20T22:04:58.594Z,52.50
2018-08-20T22:07:25.416Z,52.50
2018-08-20T22:09:52.249Z,52.50
2018-08-20T22:12:19.094Z,52.50
2018-08-20T22:14:45.981Z,52.50
2018-08-20T22:17:12.872Z,52.60
2018-08-20T22:19:39.661Z,52.50
2018-08-20T22:22:06.497Z,52.50
2018-08-20T22:24:33.343Z,52.50
2018-08-20T22:27:00.192Z,52.50
2018-08-20T22:29:27.021Z,52.60
2018-08-20T22:31:53.867Z,52.50
2018-08-20T22:34:20.717Z,52.50
2018-08-20T22:36:47.554Z,52.50
2018-08-20T22:39:14.382Z,52.50
2018-08-20T22:41:41.217Z,52.50
2018-08-20T22:44:08.094Z,52.50
2018-08-20T22:46:34.936Z,52.50
2018-08-20T22:49:01.777Z,52.50
2018-08-20T22:51:28.597Z,52.60
2018-08-20T22:53:55.579Z,52.50
2018-08-20T22:56:22.472Z,52.50
2018-08-20T22:58:49.316Z,52.50
2018-08-20T23:01:16.141Z,52.50
2018-08-20T23:03:43.906Z,52.50
2018-08-20T23:06:10.703Z,52.50
2018-08-20T23:08:37.527Z,52.50
2018-08-20T23:11:04.360Z,52.60
2018-08-20T23:13:31.340Z,52.50
2018-08-20T23:15:58.168Z,52.60
2018-08-20T23:18:24.994Z,52.60
2018-08-20T23:20:51.825Z,52.50
2018-08-20T23:23:18.656Z,52.50
2018-08-20T23:25:45.503Z,52.60
2018-08-20T23:28:12.343Z,52.50
2018-08-20T23:30:39.172Z,52.50
2018-08-20T23:33:05.994Z,52.50
2018-08-20T23:35:32.818Z,52.60
2018-08-20T23:37:59.651Z,52.60
2018-08-20T23:40:26.465Z,53.20
2018-08-20T23:42:53.318Z,52.50
2018-08-20T23:45:20.291Z,52.50
2018-08-20T23:47:47.121Z,52.60
2018-08-20T23:50:13.973Z,52.60
2018-08-20T23:52:41.849Z,52.60
2018-08-20T23:55:08.713Z,52.60
2018-08-20T23:57:35.532Z,52.60
